Time;durP1;ratioP1;P1;durP2;ratioP2;P2;SDS_P1;SDS_P2;PMS_P1;PMS_P2;Temp;Humidity;BMP_temperature;BMP_pressure;BME280_temperature;BME280_humidity;BME280_pressure;Samples;Min_cycle;Max_cycle;Signal;HPM_P1;HPM_P2
2023/01/22 00:02:25;;;;;;;19.10;9.15;;;0.50;99.90;;;-1.38;100.00;102086.59;5007849;28;20072;-73
2023/01/22 00:04:51;;;;;;;16.83;8.45;;;0.50;99.90;;;-1.39;100.00;102087.56;5006883;28;20463;-73
2023/01/22 00:07:16;;;;;;;15.60;8.20;;;0.50;99.90;;;-1.40;100.00;102085.00;5008248;28;20099;-73
2023/01/22 00:09:42;;;;;;;17.50;7.82;;;0.50;99.90;;;-1.42;100.00;102071.69;5008828;28;20051;-73
2023/01/22 00:12:09;;;;;;;21.95;9.80;;;0.50;99.90;;;-1.42;100.00;102069.03;5003838;28;20037;-73
2023/01/22 00:14:34;;;;;;;22.77;10.55;;;0.50;99.90;;;-1.41;100.00;102064.53;5007047;28;20041;-73
2023/01/22 00:17:00;;;;;;;14.73;7.07;;;0.50;99.90;;;-1.42;100.00;102069.03;4992606;28;20390;-74
2023/01/22 00:19:26;;;;;;;18.85;8.00;;;0.50;99.90;;;-1.39;100.00;102063.47;5007395;28;20034;-73
2023/01/22 00:21:51;;;;;;;19.50;9.27;;;0.50;99.90;;;-1.39;100.00;102060.78;5004117;28;20026;-74
2023/01/22 00:24:17;;;;;;;16.45;8.00;;;0.50;99.90;;;-1.39;100.00;102062.63;5010401;28;20045;-73
2023/01/22 00:26:43;;;;;;;18.25;8.73;;;0.50;99.90;;;-1.38;100.00;102059.81;5010313;28;20034;-73
2023/01/22 00:29:09;;;;;;;20.35;9.82;;;0.50;99.90;;;-1.42;100.00;102049.44;5010229;28;20085;-74
2023/01/22 00:31:36;;;;;;;18.83;9.05;;;0.50;99.90;;;-1.40;100.00;102045.69;5010385;28;20031;-74
2023/01/22 00:34:02;;;;;;;15.55;7.30;;;0.50;99.90;;;-1.42;100.00;102054.78;5005495;28;20056;-73
2023/01/22 00:36:30;;;;;;;;;;;0.50;99.90;;;-1.41;100.00;102048.47;4994777;28;20034;-74
2023/01/22 00:38:55;;;;;;;21.27;10.85;;;0.50;99.90;;;-1.45;100.00;102037.09;4994229;28;20752;-74
2023/01/22 00:41:21;;;;;;;19.75;9.20;;;0.50;99.90;;;-1.42;100.00;102041.41;4993423;28;20038;-74
2023/01/22 00:43:48;;;;;;;19.45;9.85;;;0.50;99.90;;;-1.41;100.00;102035.09;4998932;28;20045;-73
2023/01/22 00:46:16;;;;;;;17.60;8.65;;;0.50;99.90;;;-1.42;100.00;102036.91;4990999;28;20320;-73
2023/01/22 00:48:44;;;;;;;;;;;0.50;99.90;;;-1.41;100.00;102035.94;5009159;28;20406;-72
2023/01/22 00:51:11;;;;;;;15.32;8.00;;;0.50;99.90;;;-1.40;100.00;102036.81;5010057;28;19921;-73
2023/01/22 00:53:40;;;;;;;17.67;7.97;;;0.50;99.90;;;-1.40;100.00;102039.47;5002717;28;20438;-73
2023/01/22 00:56:07;;;;;;;14.48;7.22;;;0.50;99.90;;;-1.46;100.00;102013.97;5009889;28;20076;-74
2023/01/22 00:58:32;;;;;;;19.80;7.97;;;0.50;99.90;;;-1.39;100.00;102034.00;5013719;28;20050;-73
2023/01/22 01:01:02;;;;;;;15.60;6.93;;;0.50;99.90;;;-1.38;100.00;102030.38;4990894;28;20039;-73
2023/01/22 01:03:30;;;;;;;12.35;6.07;;;0.50;99.90;;;-1.38;100.00;102029.53;5004006;28;20029;-73
2023/01/22 01:06:09;;;;;;;16.85;7.78;;;0.50;99.90;;;-1.38;100.00;102027.69;5009968;28;20097;-73
2023/01/22 01:08:41;;;;;;;13.27;5.93;;;0.50;99.90;;;-1.36;100.00;102017.72;5009580;28;20073;-73
2023/01/22 01:11:12;;;;;;;18.85;9.70;;;0.50;99.90;;;-1.40;100.00;102024.25;4994471;28;20057;-73
2023/01/22 01:13:43;;;;;;;19.20;8.38;;;0.50;99.90;;;-1.37;100.00;102017.84;5012137;28;20434;-73
2023/01/22 01:16:19;;;;;;;14.40;6.85;;;0.50;99.90;;;-1.37;100.00;102018.69;5009881;28;20069;-74
2023/01/22 01:18:46;;;;;;;15.52;7.28;;;0.50;99.90;;;-1.35;100.00;102015.91;4989066;28;20042;-73
2023/01/22 01:21:12;;;;;;;11.65;6.40;;;0.50;99.90;;;-1.36;100.00;102016.88;5005050;28;20415;-73
2023/01/22 01:23:39;;;;;;;16.40;7.60;;;0.50;99.90;;;-1.34;100.00;102012.28;5015916;28;20043;-74
2023/01/22 01:26:11;;;;;;;17.42;8.73;;;0.50;99.90;;;-1.37;100.00;102013.34;5013111;28;20026;-73
2023/01/22 01:28:39;;;;;;;16.17;9.02;;;0.50;99.90;;;-1.37;100.00;102007.13;4996854;28;20062;-73
2023/01/22 01:31:09;;;;;;;10.27;6.22;;;0.50;99.90;;;-1.34;100.00;102006.94;5009492;28;20038;-73
2023/01/22 01:33:35;;;;;;;15.75;6.45;;;0.60;99.90;;;-1.34;100.00;102002.41;5003250;28;20143;-74
2023/01/22 01:36:06;;;;;;;10.88;5.18;;;0.60;99.90;;;-1.32;100.00;101999.63;5008550;28;20038;-74
2023/01/22 01:38:33;;;;;;;13.20;7.38;;;0.60;99.90;;;-1.31;100.00;102002.22;5013031;28;20036;-74
2023/01/22 01:40:59;;;;;;;13.73;6.50;;;0.50;99.90;;;-1.34;100.00;101991.69;5010766;28;20088;-73
2023/01/22 01:43:26;;;;;;;13.02;6.88;;;0.50;99.90;;;-1.33;100.00;101990.78;5004081;28;20026;-74
2023/01/22 01:45:56;;;;;;;15.70;7.13;;;0.50;99.90;;;-1.29;100.00;101995.91;5009033;28;20041;-74
2023/01/22 01:48:31;;;;;;;12.23;6.45;;;0.60;99.90;;;-1.28;100.00;101994.94;5004786;28;20053;-74
2023/01/22 01:51:11;;;;;;;10.32;5.78;;;0.50;99.90;;;-1.31;100.00;102001.34;5006321;28;20057;-75
2023/01/22 01:53:41;;;;;;;11.48;6.10;;;0.60;99.90;;;-1.26;100.00;102001.06;5012045;28;20037;-74
2023/01/22 01:56:17;;;;;;;14.38;6.63;;;0.60;99.90;;;-1.29;100.00;101998.59;5011303;28;20099;-73
2023/01/22 01:58:45;;;;;;;12.15;6.72;;;0.60;99.90;;;-1.28;100.00;101997.63;5006742;28;20034;-74
2023/01/22 02:01:16;;;;;;;11.15;6.32;;;0.60;99.90;;;-1.27;100.00;101991.31;5012431;28;20116;-74
2023/01/22 02:03:44;;;;;;;9.73;5.47;;;0.60;99.90;;;-1.25;100.00;102000.94;5013385;28;20045;-74
2023/01/22 02:06:13;;;;;;;11.63;5.70;;;0.60;99.90;;;-1.23;100.00;101998.16;5008956;28;20461;-73
2023/01/22 02:08:43;;;;;;;10.32;5.55;;;0.60;99.90;;;-1.24;100.00;101999.97;5010072;28;20049;-73
2023/01/22 02:11:09;;;;;;;12.18;6.47;;;0.60;99.90;;;-1.22;100.00;102002.53;5003059;28;20046;-73
2023/01/22 02:13:40;;;;;;;10.48;5.80;;;0.60;99.90;;;-1.21;100.00;102004.25;4994784;28;20038;-73
2023/01/22 02:16:09;;;;;;;14.18;6.95;;;0.60;99.90;;;-1.21;100.00;102001.59;5008570;28;20472;-74
2023/01/22 02:18:34;;;;;;;;;;;0.60;99.90;;;-1.18;100.00;102006.72;5013058;28;20037;-74
2023/01/22 02:21:01;;;;;;;7.82;3.85;;;0.60;99.90;;;-1.25;100.00;102006.28;5011638;28;20282;-73
2023/01/22 02:23:30;;;;;;;8.48;4.63;;;0.60;99.90;;;-1.23;100.00;102012.38;5012260;28;20041;-74
2023/01/22 02:25:57;;;;;;;9.80;5.47;;;0.70;99.90;;;-1.23;100.00;102009.72;5013099;28;20038;-73
2023/01/22 02:28:23;;;;;;;11.35;4.97;;;0.70;99.90;;;-1.23;100.00;102014.22;5002129;28;20034;-74
2023/01/22 02:30:50;;;;;;;9.40;4.88;;;0.70;99.90;;;-1.23;100.00;101998.16;4996994;28;20379;-73
2023/01/22 02:33:16;;;;;;;7.55;4.10;;;0.70;99.90;;;-1.21;100.00;102013.13;5000140;28;20548;-74
2023/01/22 02:35:43;;;;;;;9.70;5.20;;;0.70;99.90;;;-1.23;100.00;102008.88;4999763;28;20117;-73
2023/01/22 02:38:09;;;;;;;8.50;4.50;;;0.70;99.90;;;-1.25;100.00;102000.94;5013587;28;20037;-74
2023/01/22 02:40:35;;;;;;;7.55;4.50;;;0.60;99.90;;;-1.29;100.00;101998.59;5003184;28;20656;-73
2023/01/22 02:43:02;;;;;;;7.05;3.83;;;0.60;99.90;;;-1.25;100.00;102006.28;5026712;28;20121;-74
2023/01/22 02:45:28;;;;;;;11.70;6.07;;;0.60;99.90;;;-1.24;100.00;101993.75;5010192;28;20041;-74
2023/01/22 02:47:53;;;;;;;11.77;6.35;;;0.60;99.90;;;-1.25;100.00;102000.09;5003236;28;20049;-74
2023/01/22 02:50:19;;;;;;;11.98;5.82;;;0.60;99.90;;;-1.27;100.00;101983.25;5005385;28;20092;-73
2023/01/22 02:52:45;;;;;;;9.60;5.07;;;0.60;99.90;;;-1.22;100.00;101995.34;4999661;28;20041;-74
2023/01/22 02:55:11;;;;;;;10.02;5.47;;;0.70;99.90;;;-1.22;100.00;101997.19;5009100;28;20049;-73
2023/01/22 02:57:39;;;;;;;12.75;5.68;;;0.70;99.90;;;-1.20;100.00;102000.63;5014877;28;20050;-74
2023/01/22 03:00:05;;;;;;;9.57;5.30;;;0.70;99.90;;;-1.20;100.00;102003.28;5010878;28;20045;-73
2023/01/22 03:02:31;;;;;;;8.18;4.07;;;0.60;99.90;;;-1.18;100.00;101994.19;5027103;28;20389;-74
2023/01/22 03:05:02;;;;;;;10.05;5.63;;;0.70;99.90;;;-1.17;100.00;101998.59;4994562;28;20042;-73
2023/01/22 03:07:40;;;;;;;14.15;6.43;;;0.70;99.90;;;-1.18;100.00;101996.88;5004362;28;20109;-73
2023/01/22 03:10:14;;;;;;;11.57;5.32;;;0.70;99.90;;;-1.16;100.00;102000.31;5008893;28;20129;-74
2023/01/22 03:21:14;;;;;;;8.18;4.65;;;0.70;99.90;;;-1.17;100.00;101989.69;4994633;28;20034;-74
2023/01/22 03:23:44;;;;;;;10.15;4.97;;;0.70;99.90;;;-1.12;100.00;101984.03;5003990;28;20026;-74
2023/01/22 03:26:10;;;;;;;7.70;4.57;;;0.70;99.90;;;-1.11;100.00;101991.09;5004455;28;20172;-74
2023/01/22 03:28:36;;;;;;;10.65;6.13;;;0.70;99.90;;;-1.11;100.00;101989.25;4997667;28;20038;-74
2023/01/22 03:31:02;;;;;;;9.82;4.50;;;0.80;99.90;;;-1.12;100.00;101994.72;5025072;28;20510;-74
2023/01/22 03:33:29;;;;;;;7.43;4.07;;;0.70;99.90;;;-1.11;100.00;101994.59;5021016;28;20045;-74
2023/01/22 03:36:00;;;;;;;11.30;5.75;;;0.80;99.90;;;-1.10;100.00;101999.00;4998139;28;20287;-75
2023/01/22 03:38:26;;;;;;;10.90;6.25;;;0.80;99.90;;;-1.13;100.00;101987.66;4996794;28;20060;-74
2023/01/22 03:41:00;;;;;;;9.98;5.60;;;0.70;99.90;;;-1.11;100.00;101997.28;4999663;28;20048;-74
2023/01/22 03:43:27;;;;;;;10.00;4.95;;;0.70;99.90;;;-1.12;100.00;102000.94;4992060;28;20053;-73
2023/01/22 03:45:52;;;;;;;8.10;4.63;;;0.70;99.90;;;-1.12;100.00;102006.28;5008186;28;20160;-73
2023/01/22 03:48:19;;;;;;;9.45;5.72;;;0.70;99.90;;;-1.15;100.00;101993.13;4996865;28;20121;-73
2023/01/22 03:50:47;;;;;;;9.30;4.55;;;0.70;99.90;;;-1.17;100.00;101992.38;5012181;28;20145;-73
2023/01/22 03:53:13;;;;;;;9.05;4.65;;;0.70;99.90;;;-1.19;100.00;102000.53;5014825;28;20034;-73
2023/01/22 03:55:39;;;;;;;9.80;4.93;;;0.60;99.90;;;-1.19;100.00;101996.97;5003403;28;20087;-74
2023/01/22 03:58:04;;;;;;;9.55;4.57;;;0.60;99.90;;;-148.53;100.00;63986.66;5008709;28;20498;-74
2023/01/22 04:00:30;;;;;;;6.68;4.15;;;0.60;99.90;;;-148.53;100.00;63986.66;4999985;28;20030;-73
2023/01/22 04:02:57;;;;;;;8.45;4.55;;;0.60;99.90;;;-148.53;100.00;63986.66;4990967;28;20089;-73
2023/01/22 04:05:29;;;;;;;10.57;5.30;;;0.60;99.90;;;-0.91;100.00;102003.09;5006089;28;20515;-74
2023/01/22 04:07:55;;;;;;;9.48;4.95;;;0.60;99.90;;;-148.53;100.00;63986.66;5009886;28;21992;-74
2023/01/22 04:10:25;;;;;;;8.98;4.47;;;0.60;99.90;;;-148.53;100.00;63986.66;4997366;28;20177;-74
2023/01/22 04:12:51;;;;;;;7.15;3.70;;;0.60;99.90;;;-148.53;100.00;63986.66;4994263;28;20034;-73
2023/01/22 04:15:20;;;;;;;8.90;4.13;;;0.60;99.90;;;-148.53;100.00;63986.66;5014342;28;20042;-74
2023/01/22 04:17:47;;;;;;;8.35;4.80;;;0.60;99.90;;;-148.53;100.00;63986.66;4993105;28;20084;-74
2023/01/22 04:20:42;;;;;;;7.85;4.05;;;0.60;99.90;;;-148.53;100.00;63986.66;4988180;28;20375;-74
2023/01/22 04:23:43;;;;;;;8.38;4.32;;;0.60;99.90;;;-148.53;100.00;63986.66;5002209;28;20485;-75
2023/01/22 04:26:09;;;;;;;7.65;3.85;;;0.60;99.90;;;-148.53;100.00;63986.66;4998738;28;20041;-75
2023/01/22 04:28:35;;;;;;;7.60;4.43;;;0.60;99.90;;;-148.53;100.00;63986.66;4997431;28;20069;-73
2023/01/22 04:31:02;;;;;;;10.38;5.65;;;0.60;99.90;;;-148.53;100.00;63986.66;4997879;28;20063;-75
2023/01/22 04:33:43;;;;;;;9.68;5.38;;;0.60;99.90;;;-148.53;100.00;63986.66;5026252;28;20080;-74
2023/01/22 04:36:14;;;;;;;9.65;5.00;;;0.60;99.90;;;-148.53;100.00;63986.66;5024279;28;20057;-74
2023/01/22 04:38:41;;;;;;;11.55;5.88;;;0.60;99.90;;;-148.53;100.00;63986.66;5002765;28;20033;-74
2023/01/22 04:41:07;;;;;;;9.48;4.47;;;0.60;99.90;;;-148.53;100.00;63986.66;5015336;28;20041;-74
2023/01/22 04:43:33;;;;;;;7.72;4.13;;;0.60;99.90;;;-148.53;100.00;63986.66;5012597;28;20132;-75
2023/01/22 04:45:59;;;;;;;10.75;5.95;;;0.70;99.90;;;-148.53;100.00;63986.66;5026480;28;20383;-74
2023/01/22 04:48:29;;;;;;;10.38;5.50;;;0.70;99.90;;;-148.53;100.00;63986.66;5005820;28;20049;-74
2023/01/22 04:50:55;;;;;;;11.45;5.13;;;0.70;99.90;;;-148.53;100.00;63986.66;5003817;28;20048;-74
2023/01/22 04:53:23;;;;;;;8.30;4.63;;;0.70;99.90;;;-148.53;100.00;63986.66;5008675;28;20025;-75
2023/01/22 04:55:49;;;;;;;9.10;4.28;;;0.80;99.90;;;-148.53;100.00;63986.66;5008671;28;20041;-74
2023/01/22 04:58:14;;;;;;;11.70;5.28;;;0.70;99.90;;;-148.53;100.00;63986.66;5029583;28;20033;-75
2023/01/22 05:00:40;;;;;;;8.93;4.70;;;0.70;99.90;;;-148.53;100.00;63986.66;4998447;28;20057;-76
2023/01/22 05:03:09;;;;;;;10.80;4.78;;;0.70;99.90;;;-148.53;100.00;63986.66;5027012;28;20049;-76
2023/01/22 05:05:35;;;;;;;10.93;4.90;;;0.70;99.90;;;-148.53;100.00;63986.66;5029177;28;20072;-76
2023/01/22 05:08:01;;;;;;;10.02;5.35;;;0.60;99.90;;;-148.53;100.00;63986.66;5012582;28;20049;-75
2023/01/22 05:10:28;;;;;;;11.40;5.20;;;0.60;99.90;;;-148.53;100.00;63986.66;5011821;28;20229;-75
2023/01/22 05:12:54;;;;;;;10.10;5.05;;;0.60;99.90;;;-148.53;100.00;63986.66;5014687;28;20505;-75
2023/01/22 05:15:21;;;;;;;8.93;4.53;;;0.60;99.90;;;-148.53;100.00;63986.66;4994868;28;20151;-77
2023/01/22 05:17:47;;;;;;;10.93;5.25;;;0.60;99.90;;;-148.53;100.00;63986.66;5027987;28;20520;-76
2023/01/22 05:20:13;;;;;;;10.38;5.38;;;0.60;99.90;;;-148.53;100.00;63986.66;5009562;28;20057;-76
2023/01/22 05:22:39;;;;;;;8.40;4.65;;;0.60;99.90;;;-148.53;100.00;63986.66;5021069;28;20401;-76
2023/01/22 05:25:05;;;;;;;8.88;4.75;;;0.60;99.90;;;-148.53;100.00;63986.66;4998344;28;20035;-76
2023/01/22 05:27:31;;;;;;;12.00;5.55;;;0.60;99.90;;;-148.53;100.00;63986.66;4994898;28;20081;-75
2023/01/22 05:30:12;;;;;;;9.10;4.93;;;0.60;99.90;;;-148.53;100.00;63986.66;5022086;28;20137;-75
2023/01/22 05:32:48;;;;;;;8.02;4.50;;;0.60;99.90;;;-148.53;100.00;63986.66;5012518;28;20038;-76
2023/01/22 05:35:15;;;;;;;9.80;5.03;;;0.60;99.90;;;-148.53;100.00;63986.66;5014968;28;20056;-77
2023/01/22 05:37:43;;;;;;;9.38;4.68;;;0.60;99.90;;;-148.53;100.00;63986.66;4994496;28;20036;-77
2023/01/22 05:40:12;;;;;;;;;;;0.60;99.90;;;-148.53;100.00;63986.66;5011916;28;20121;-77
2023/01/22 05:42:37;;;;;;;7.65;4.07;;;0.60;99.90;;;-148.53;100.00;63986.66;5002277;28;19924;-78
2023/01/22 05:45:06;;;;;;;7.75;4.13;;;0.60;99.90;;;-148.53;100.00;63986.66;5015019;28;20058;-78
2023/01/22 05:47:35;;;;;;;9.02;4.50;;;0.50;99.90;;;-148.53;100.00;63986.66;5004989;28;20038;-78
2023/01/22 05:50:24;;;;;;;8.82;4.60;;;0.50;99.90;;;-148.53;100.00;63986.66;5005618;28;20037;-77
2023/01/22 05:53:00;;;;;;;9.93;5.25;;;0.60;99.90;;;-148.53;100.00;63986.66;5009221;28;20501;-80
2023/01/22 05:55:25;;;;;;;10.63;4.95;;;0.60;99.90;;;-148.53;100.00;63986.66;5013650;28;20037;-79
2023/01/22 05:57:51;;;;;;;10.10;4.97;;;0.60;99.90;;;-148.53;100.00;63986.66;5017975;28;20037;-79
2023/01/22 06:00:18;;;;;;;10.05;5.55;;;0.60;99.90;;;-148.53;100.00;63986.66;5014037;28;20371;-78
2023/01/22 06:02:56;;;;;;;10.15;4.57;;;0.60;99.90;;;-148.53;100.00;63986.66;5012497;28;20044;-80
2023/01/22 06:05:21;;;;;;;10.52;5.55;;;0.60;99.90;;;-148.53;100.00;63986.66;5012807;28;20029;-78
2023/01/22 06:07:55;;;;;;;7.22;3.55;;;0.60;99.90;;;-148.53;100.00;63986.66;4991075;28;20056;-79
2023/01/22 06:10:26;;;;;;;8.25;4.55;;;0.60;99.90;;;-148.53;100.00;63986.66;5010419;28;20097;-79
2023/01/22 06:12:52;;;;;;;9.25;4.70;;;0.60;99.90;;;-148.53;100.00;63986.66;5017639;28;20065;-79
2023/01/22 06:15:17;;;;;;;10.20;4.95;;;0.60;99.90;;;-148.53;100.00;63986.66;5002525;28;20540;-79
2023/01/22 06:17:49;;;;;;;7.47;3.88;;;0.60;99.90;;;-148.53;100.00;63986.66;5010878;28;20038;-79
2023/01/22 06:20:14;;;;;;;10.95;5.28;;;0.60;99.90;;;-148.53;100.00;63986.66;5008356;28;20387;-79
2023/01/22 06:22:40;;;;;;;13.73;5.93;;;0.60;99.90;;;-148.53;100.00;63986.66;4993199;28;20042;-80
2023/01/22 06:25:08;;;;;;;11.15;5.68;;;0.60;99.90;;;-148.53;100.00;63986.66;4980147;28;20100;-78
2023/01/22 06:27:53;;;;;;;9.68;5.65;;;0.60;99.90;;;-148.53;100.00;63986.66;4991585;28;20046;-77
2023/01/22 06:30:19;;;;;;;11.40;5.50;;;0.60;99.90;;;-148.53;100.00;63986.66;5003464;28;22089;-79
2023/01/22 06:32:45;;;;;;;10.82;5.25;;;0.60;99.90;;;-148.53;100.00;63986.66;5017234;28;20113;-78
2023/01/22 06:35:12;;;;;;;11.10;5.90;;;0.60;99.90;;;-148.53;100.00;63986.66;4991134;28;20403;-78
2023/01/22 06:37:37;;;;;;;10.52;5.97;;;0.60;99.90;;;-148.53;100.00;63986.66;5013573;28;20042;-78
2023/01/22 06:40:04;;;;;;;10.30;5.60;;;0.60;99.90;;;-148.53;100.00;63986.66;5000562;28;20038;-80
2023/01/22 06:42:39;;;;;;;12.30;6.13;;;0.60;99.90;;;-148.53;100.00;63986.66;4996536;28;20057;-79
2023/01/22 06:45:07;;;;;;;13.02;5.80;;;0.60;99.90;;;-148.53;100.00;63986.66;5012659;28;20052;-78
2023/01/22 06:47:33;;;;;;;11.30;5.93;;;0.60;99.90;;;-148.53;100.00;63986.66;5013776;28;20085;-78
2023/01/22 06:50:01;;;;;;;12.13;6.20;;;0.60;99.90;;;-148.53;100.00;63986.66;4991745;28;20052;-78
2023/01/22 06:52:26;;;;;;;12.15;6.15;;;0.60;99.90;;;-148.53;100.00;63986.66;5000668;28;20121;-79
2023/01/22 06:54:52;;;;;;;10.68;5.43;;;0.60;99.90;;;-148.53;100.00;63986.66;5000111;28;20038;-79
2023/01/22 06:57:18;;;;;;;11.93;6.38;;;0.60;99.90;;;-148.53;100.00;63986.66;4998322;28;20038;-79
2023/01/22 06:59:44;;;;;;;12.93;6.55;;;0.70;99.90;;;-148.53;100.00;63986.66;4997323;28;20136;-79
2023/01/22 07:02:16;;;;;;;12.48;6.25;;;0.70;99.90;;;-148.53;100.00;63986.66;5004664;28;20042;-79
2023/01/22 07:04:42;;;;;;;9.50;5.55;;;0.70;99.90;;;-148.53;100.00;63986.66;5002160;28;20033;-80
2023/01/22 07:07:08;;;;;;;11.60;5.55;;;0.70;99.90;;;-148.53;100.00;63986.66;5008256;28;20052;-80
2023/01/22 07:09:34;;;;;;;10.70;5.93;;;0.70;99.90;;;-148.53;100.00;63986.66;4992747;28;20078;-80
2023/01/22 07:12:00;;;;;;;10.48;5.75;;;0.70;99.90;;;-148.53;100.00;63986.66;4992684;28;20401;-79
2023/01/22 07:14:27;;;;;;;11.10;6.30;;;0.70;99.90;;;-148.53;100.00;63986.66;5008427;28;20075;-80
2023/01/22 07:16:54;;;;;;;10.35;5.65;;;0.70;99.90;;;-148.53;100.00;63986.66;5000852;28;20077;-80
2023/01/22 07:19:20;;;;;;;12.03;6.30;;;0.70;99.90;;;-148.53;100.00;63986.66;5005391;28;20128;-79
2023/01/22 07:21:46;;;;;;;11.50;5.82;;;0.70;99.90;;;-148.53;100.00;63986.66;5008458;28;20297;-77
2023/01/22 07:24:12;;;;;;;11.43;6.18;;;0.70;99.90;;;-148.53;100.00;63986.66;5006656;28;20394;-77
2023/01/22 07:26:37;;;;;;;12.70;6.63;;;0.70;99.90;;;-148.53;100.00;63986.66;5000672;28;20017;-76
2023/01/22 07:29:04;;;;;;;13.65;6.55;;;0.70;99.90;;;-148.53;100.00;63986.66;5010412;28;20508;-77
2023/01/22 07:31:30;;;;;;;13.15;6.65;;;0.70;99.90;;;-148.53;100.00;63986.66;5002337;28;20124;-76
2023/01/22 07:33:55;;;;;;;12.02;6.38;;;0.80;99.90;;;-148.53;100.00;63986.66;5001311;28;20058;-77
2023/01/22 07:36:22;;;;;;;13.52;6.57;;;0.80;99.90;;;-148.53;100.00;63986.66;5004274;28;20042;-76
2023/01/22 07:38:47;;;;;;;12.15;6.18;;;0.80;99.90;;;-148.53;100.00;63986.66;4992535;28;20038;-76
2023/01/22 07:41:14;;;;;;;12.45;6.60;;;0.80;99.90;;;-148.53;100.00;63986.66;5007437;28;20038;-76
2023/01/22 07:43:39;;;;;;;13.32;6.20;;;0.80;99.90;;;-148.53;100.00;63986.66;5007618;28;20537;-77
2023/01/22 07:46:07;;;;;;;12.40;6.20;;;0.80;99.90;;;-148.53;100.00;63986.66;4996306;28;20035;-77
2023/01/22 07:48:33;;;;;;;13.02;6.28;;;0.80;99.90;;;-148.53;100.00;63986.66;5006681;28;20459;-77
2023/01/22 07:51:05;;;;;;;11.80;6.88;;;0.80;99.90;;;-148.53;100.00;63986.66;4992379;28;20038;-78
2023/01/22 07:53:33;;;;;;;11.35;6.13;;;0.80;99.90;;;-148.53;100.00;63986.66;4994035;28;20035;-77
2023/01/22 07:56:01;;;;;;;12.70;6.05;;;0.80;99.90;;;-148.53;100.00;63986.66;4992753;28;20375;-78
2023/01/22 07:58:26;;;;;;;;;;;0.80;99.90;;;-148.53;100.00;63986.66;5010858;28;20998;-78
2023/01/22 08:00:52;;;;;;;12.50;6.10;;;0.80;99.90;;;-148.53;100.00;63986.66;5010437;28;19948;-78
2023/01/22 08:03:18;;;;;;;12.60;6.30;;;0.80;99.90;;;-148.53;100.00;63986.66;5009846;28;20053;-78
2023/01/22 08:05:45;;;;;;;11.85;6.15;;;0.80;99.90;;;-148.53;100.00;63986.66;5005637;28;20029;-76
2023/01/22 08:08:17;;;;;;;15.38;7.30;;;0.80;99.90;;;-148.53;100.00;63986.66;5009146;28;20038;-76
2023/01/22 08:10:44;;;;;;;13.48;7.15;;;0.80;99.90;;;-148.53;100.00;63986.66;5000595;28;20379;-76
2023/01/22 08:13:09;;;;;;;11.23;6.28;;;0.80;99.90;;;-148.53;100.00;63986.66;5006832;28;20037;-76
2023/01/22 08:15:35;;;;;;;12.68;6.72;;;0.80;99.90;;;-148.53;100.00;63986.66;5010507;28;20033;-75
2023/01/22 08:18:01;;;;;;;10.98;5.40;;;0.90;99.90;;;-148.53;100.00;63986.66;5010059;28;20065;-76
2023/01/22 08:20:27;;;;;;;11.63;6.22;;;0.90;99.90;;;-148.53;100.00;63986.66;5003551;28;20041;-76
2023/01/22 08:22:58;;;;;;;11.80;6.45;;;0.90;99.90;;;-148.53;100.00;63986.66;5001094;28;20040;-76
2023/01/22 08:25:25;;;;;;;9.98;5.60;;;0.90;99.90;;;-148.53;100.00;63986.66;5008847;28;20180;-77
2023/01/22 08:27:51;;;;;;;12.90;6.45;;;0.90;99.90;;;-148.53;100.00;63986.66;4997710;28;20034;-78
2023/01/22 08:30:17;;;;;;;13.82;6.93;;;0.90;99.90;;;-148.53;100.00;63986.66;4999958;28;20513;-78
2023/01/22 08:32:44;;;;;;;11.50;5.75;;;0.90;99.90;;;-148.53;100.00;63986.66;5004626;28;20481;-78
2023/01/22 08:35:11;;;;;;;14.75;7.13;;;1.00;99.90;;;-148.53;100.00;63986.66;5007201;28;20026;-77
2023/01/22 08:37:37;;;;;;;10.75;6.38;;;1.00;99.90;;;-148.53;100.00;63986.66;5012750;28;20520;-77
2023/01/22 08:40:06;;;;;;;12.18;6.47;;;1.00;99.90;;;-148.53;100.00;63986.66;5007974;28;20062;-78
2023/01/22 08:42:32;;;;;;;12.13;6.53;;;1.00;99.90;;;-148.53;100.00;63986.66;5014250;28;20034;-76
2023/01/22 08:44:57;;;;;;;11.70;5.85;;;1.10;99.90;;;-148.53;100.00;63986.66;5009509;28;20370;-77
2023/01/22 08:47:23;;;;;;;11.65;6.18;;;1.10;99.90;;;-148.53;100.00;63986.66;5009699;28;20049;-77
2023/01/22 08:49:49;;;;;;;11.65;5.90;;;1.10;99.90;;;-148.53;100.00;63986.66;5008332;28;20052;-78
2023/01/22 08:52:15;;;;;;;12.48;6.07;;;1.10;99.90;;;-148.53;100.00;63986.66;5008939;28;20040;-78
2023/01/22 08:54:41;;;;;;;10.43;5.38;;;1.10;99.90;;;-148.53;100.00;63986.66;5014027;28;20037;-79
2023/01/22 08:57:07;;;;;;;9.77;5.40;;;1.10;99.90;;;-148.53;100.00;63986.66;5002292;28;20042;-78
2023/01/22 08:59:33;;;;;;;11.65;5.85;;;1.20;99.90;;;-148.53;100.00;63986.66;5013600;28;20477;-78
2023/01/22 09:01:59;;;;;;;12.95;6.30;;;1.20;99.90;;;-148.53;100.00;63986.66;4988755;28;20512;-79
2023/01/22 09:04:26;;;;;;;9.60;5.32;;;1.30;99.90;;;-148.53;100.00;63986.66;5011334;28;20446;-77
2023/01/22 09:06:51;;;;;;;10.18;5.80;;;1.30;99.90;;;-148.53;100.00;63986.66;5001575;28;20030;-77
2023/01/22 09:09:17;;;;;;;12.02;6.25;;;1.30;99.90;;;-148.53;100.00;63986.66;5001944;28;20398;-77
2023/01/22 09:11:44;;;;;;;10.52;5.15;;;1.40;99.90;;;-148.53;100.00;63986.66;5009344;28;20041;-77
2023/01/22 09:14:10;;;;;;;9.13;5.38;;;1.40;99.90;;;-148.53;100.00;63986.66;5014176;28;20083;-78
2023/01/22 09:16:36;;;;;;;11.07;5.78;;;1.40;99.90;;;-148.53;100.00;63986.66;5011540;28;20455;-77
2023/01/22 09:19:02;;;;;;;11.00;6.00;;;1.40;99.90;;;-148.53;100.00;63986.66;5003079;28;20037;-77
2023/01/22 09:21:27;;;;;;;10.48;6.07;;;1.50;99.90;;;-148.53;100.00;63986.66;5004462;28;20050;-77
2023/01/22 09:23:53;;;;;;;10.38;6.70;;;1.50;99.90;;;-148.53;100.00;63986.66;5006342;28;20099;-76
2023/01/22 09:26:20;;;;;;;12.68;7.35;;;1.60;99.90;;;-148.53;100.00;63986.66;5004439;28;20038;-77
2023/01/22 09:28:46;;;;;;;13.75;7.03;;;1.70;99.90;;;-148.53;100.00;63986.66;5011021;28;20074;-78
2023/01/22 09:31:12;;;;;;;10.68;6.07;;;1.80;99.90;;;-148.53;100.00;63986.66;5011655;28;20406;-78
2023/01/22 09:33:38;;;;;;;10.07;5.95;;;1.70;99.90;;;-148.53;100.00;63986.66;5011331;28;20394;-78
2023/01/22 09:36:10;;;;;;;10.50;6.03;;;1.70;99.90;;;-148.53;100.00;63986.66;5000742;28;20118;-79
2023/01/22 09:38:36;;;;;;;10.32;5.70;;;1.80;99.90;;;-148.53;100.00;63986.66;4998373;28;20031;-81
2023/01/22 09:41:21;;;;;;;10.63;6.53;;;1.80;99.90;;;-148.53;100.00;63986.66;5000195;28;20038;-81
2023/01/22 09:44:20;;;;;;;10.43;5.13;;;1.90;99.90;;;-148.53;100.00;63986.66;5012640;28;20073;-82
2023/01/22 09:46:58;;;;;;;9.37;5.73;;;2.00;99.90;;;-148.53;100.00;63986.66;5010089;28;20092;-80
2023/01/22 09:49:32;;;;;;;10.50;5.53;;;1.90;99.90;;;-148.53;100.00;63986.66;5012411;28;20033;-81
2023/01/22 09:52:01;;;;;;;10.20;5.68;;;1.90;99.90;;;-148.53;100.00;63986.66;5012950;28;20037;-82
2023/01/22 09:54:29;;;;;;;10.98;6.00;;;1.90;99.90;;;-148.53;100.00;63986.66;4993381;28;20030;-82
2023/01/22 09:56:59;;;;;;;9.20;5.47;;;2.00;99.90;;;-148.53;100.00;63986.66;5011660;28;20088;-79
2023/01/22 09:59:48;;;;;;;9.90;5.30;;;2.00;99.90;;;-148.53;100.00;63986.66;5027928;28;20062;-84
2023/01/22 10:02:39;;;;;;;10.65;5.97;;;2.00;99.90;;;-148.53;100.00;63986.66;5011155;28;20041;-82
2023/01/22 10:05:29;;;;;;;11.80;5.80;;;2.00;99.90;;;-148.53;100.00;63986.66;5003965;28;20445;-81
2023/01/22 10:08:19;;;;;;;8.55;5.45;;;2.20;99.90;;;-148.53;100.00;63986.66;5012658;28;20049;-80
2023/01/22 10:10:44;;;;;;;8.82;5.20;;;2.20;99.90;;;-148.53;100.00;63986.66;5011280;28;20525;-82
2023/01/22 10:13:22;;;;;;;10.15;6.10;;;2.20;99.90;;;-148.53;100.00;63986.66;5001756;28;20039;-79
2023/01/22 10:15:51;;;;;;;8.77;5.40;;;2.30;99.90;;;-148.53;100.00;63986.66;5011380;28;20108;-80
2023/01/22 10:18:42;;;;;;;10.05;5.68;;;2.30;99.90;;;-148.53;100.00;63986.66;5007353;28;20034;-80
2023/01/22 10:21:23;;;;;;;8.15;5.22;;;2.30;99.90;;;-148.53;100.00;63986.66;5008382;28;20038;-80